LRTR/TSR METAR and TAF weather

Enter ICAO airport designator
Station Type Date Time Source
LRTR METAR 2019/09/21 04:30 UTC NOAA

LRTR 210430Z 09005KT CAVOK 01/00 Q1027 NOSIG


Station Type Date Time Source
LRTR Decoded METAR 2019/09/21 04:30 UTC NOAA

Timisoara, Romania (LRTR) 45-46N 021-15E 88M
Sep 21, 2019 - 12:30 AM EDT / 2019.09.21 0430 UTC
Wind: from the E (090 degrees) at 6 MPH (5 KT):0
Visibility: greater than 7 mile(s):0
Temperature: 33 F (1 C)
Windchill: 26 F (-3 C):1
Dew Point: 32 F (0 C)
Relative Humidity: 93%
Pressure (altimeter): 30.33 in. Hg (1027 hPa)
ob: LRTR 210430Z 09005KT CAVOK 01/00 Q1027 NOSIG
cycle: 4

Station Type Date Time Source
LRTR TAF 2019/09/20 18:33 UTC NOAA

TAF LRTR 201700Z 2018/2118 VRB04KT CAVOK

Example: see airport list